sensor_id;sensor_type;location;lat;lon;timestamp;P1;durP1;ratioP1;P2;durP2;ratioP2
38591;SDS011;24356;48.460;11.450;2023-05-07T00:00:20;2.38;;;1.70;;
38591;SDS011;24356;48.460;11.450;2023-05-07T00:02:46;2.85;;;1.85;;
38591;SDS011;24356;48.460;11.450;2023-05-07T00:05:12;5.22;;;1.80;;
38591;SDS011;24356;48.460;11.450;2023-05-07T00:07:38;2.90;;;1.88;;
38591;SDS011;24356;48.460;11.450;2023-05-07T00:10:04;2.38;;;1.67;;
38591;SDS011;24356;48.460;11.450;2023-05-07T00:12:31;2.05;;;1.73;;
38591;SDS011;24356;48.460;11.450;2023-05-07T00:15:03;3.45;;;1.60;;
38591;SDS011;24356;48.460;11.450;2023-05-07T00:17:30;2.10;;;1.70;;
38591;SDS011;24356;48.460;11.450;2023-05-07T00:19:56;3.47;;;1.75;;
38591;SDS011;24356;48.460;11.450;2023-05-07T00:22:21;6.60;;;1.75;;
38591;SDS011;24356;48.460;11.450;2023-05-07T00:24:47;2.20;;;1.67;;
38591;SDS011;24356;48.460;11.450;2023-05-07T00:27:12;3.90;;;1.60;;
38591;SDS011;24356;48.460;11.450;2023-05-07T00:29:38;1.58;;;1.48;;
38591;SDS011;24356;48.460;11.450;2023-05-07T00:32:04;2.00;;;1.67;;
38591;SDS011;24356;48.460;11.450;2023-05-07T00:34:30;3.50;;;1.70;;
38591;SDS011;24356;48.460;11.450;2023-05-07T00:36:55;4.30;;;1.65;;
38591;SDS011;24356;48.460;11.450;2023-05-07T00:39:21;1.90;;;1.60;;
38591;SDS011;24356;48.460;11.450;2023-05-07T00:41:46;6.75;;;1.88;;
38591;SDS011;24356;48.460;11.450;2023-05-07T00:44:12;2.38;;;1.80;;
38591;SDS011;24356;48.460;11.450;2023-05-07T00:46:39;2.58;;;1.40;;
38591;SDS011;24356;48.460;11.450;2023-05-07T00:49:05;4.03;;;1.90;;
38591;SDS011;24356;48.460;11.450;2023-05-07T00:51:31;2.22;;;2.00;;
38591;SDS011;24356;48.460;11.450;2023-05-07T00:53:59;3.28;;;1.70;;
38591;SDS011;24356;48.460;11.450;2023-05-07T00:56:25;3.63;;;1.70;;
38591;SDS011;24356;48.460;11.450;2023-05-07T00:58:52;2.03;;;1.70;;
38591;SDS011;24356;48.460;11.450;2023-05-07T01:01:17;3.10;;;1.85;;
38591;SDS011;24356;48.460;11.450;2023-05-07T01:03:43;2.67;;;1.60;;
38591;SDS011;24356;48.460;11.450;2023-05-07T01:06:09;2.75;;;2.00;;
38591;SDS011;24356;48.460;11.450;2023-05-07T01:08:37;3.10;;;2.10;;
38591;SDS011;24356;48.460;11.450;2023-05-07T01:11:05;2.83;;;1.90;;
38591;SDS011;24356;48.460;11.450;2023-05-07T01:13:32;2.88;;;1.92;;
38591;SDS011;24356;48.460;11.450;2023-05-07T01:15:59;2.88;;;1.90;;
38591;SDS011;24356;48.460;11.450;2023-05-07T01:18:25;5.03;;;2.20;;
38591;SDS011;24356;48.460;11.450;2023-05-07T01:20:51;2.20;;;1.90;;
38591;SDS011;24356;48.460;11.450;2023-05-07T01:23:17;2.10;;;1.90;;
38591;SDS011;24356;48.460;11.450;2023-05-07T01:25:43;4.28;;;2.15;;
38591;SDS011;24356;48.460;11.450;2023-05-07T01:28:16;4.30;;;2.03;;
38591;SDS011;24356;48.460;11.450;2023-05-07T01:30:41;2.00;;;1.70;;
38591;SDS011;24356;48.460;11.450;2023-05-07T01:33:17;4.20;;;2.38;;
38591;SDS011;24356;48.460;11.450;2023-05-07T01:35:47;5.40;;;2.10;;
38591;SDS011;24356;48.460;11.450;2023-05-07T01:38:15;5.55;;;2.05;;
38591;SDS011;24356;48.460;11.450;2023-05-07T01:40:41;2.20;;;1.88;;
38591;SDS011;24356;48.460;11.450;2023-05-07T01:43:07;2.10;;;1.90;;
38591;SDS011;24356;48.460;11.450;2023-05-07T01:45:34;2.25;;;1.90;;
38591;SDS011;24356;48.460;11.450;2023-05-07T01:48:00;2.33;;;2.10;;
38591;SDS011;24356;48.460;11.450;2023-05-07T01:50:27;2.78;;;1.80;;
38591;SDS011;24356;48.460;11.450;2023-05-07T01:52:53;2.97;;;2.00;;
38591;SDS011;24356;48.460;11.450;2023-05-07T01:55:19;2.55;;;2.22;;
38591;SDS011;24356;48.460;11.450;2023-05-07T01:57:45;2.63;;;2.00;;
38591;SDS011;24356;48.460;11.450;2023-05-07T02:00:10;3.28;;;2.03;;
38591;SDS011;24356;48.460;11.450;2023-05-07T02:02:36;3.58;;;1.98;;
38591;SDS011;24356;48.460;11.450;2023-05-07T02:05:03;2.30;;;1.90;;
38591;SDS011;24356;48.460;11.450;2023-05-07T02:07:29;4.22;;;2.22;;
38591;SDS011;24356;48.460;11.450;2023-05-07T02:09:54;1.88;;;1.73;;
38591;SDS011;24356;48.460;11.450;2023-05-07T02:12:22;2.92;;;2.15;;
38591;SDS011;24356;48.460;11.450;2023-05-07T02:14:48;3.42;;;2.05;;
38591;SDS011;24356;48.460;11.450;2023-05-07T02:17:14;2.55;;;1.90;;
38591;SDS011;24356;48.460;11.450;2023-05-07T02:19:40;2.13;;;1.90;;
38591;SDS011;24356;48.460;11.450;2023-05-07T02:22:06;3.13;;;2.50;;
38591;SDS011;24356;48.460;11.450;2023-05-07T02:24:32;2.67;;;2.33;;
38591;SDS011;24356;48.460;11.450;2023-05-07T02:26:57;3.30;;;2.13;;
38591;SDS011;24356;48.460;11.450;2023-05-07T02:29:23;2.53;;;2.08;;
38591;SDS011;24356;48.460;11.450;2023-05-07T02:31:48;3.10;;;2.08;;
38591;SDS011;24356;48.460;11.450;2023-05-07T02:34:16;2.30;;;1.95;;
38591;SDS011;24356;48.460;11.450;2023-05-07T02:36:41;2.60;;;2.10;;
38591;SDS011;24356;48.460;11.450;2023-05-07T02:39:07;2.92;;;2.05;;
38591;SDS011;24356;48.460;11.450;2023-05-07T02:41:33;4.43;;;2.60;;
38591;SDS011;24356;48.460;11.450;2023-05-07T02:43:58;4.70;;;2.67;;
38591;SDS011;24356;48.460;11.450;2023-05-07T02:46:24;2.40;;;2.03;;
38591;SDS011;24356;48.460;11.450;2023-05-07T02:48:50;3.13;;;2.20;;
38591;SDS011;24356;48.460;11.450;2023-05-07T02:51:17;3.85;;;2.03;;
38591;SDS011;24356;48.460;11.450;2023-05-07T02:53:44;2.60;;;2.25;;
38591;SDS011;24356;48.460;11.450;2023-05-07T02:56:10;2.85;;;2.20;;
38591;SDS011;24356;48.460;11.450;2023-05-07T02:58:36;3.85;;;2.00;;
38591;SDS011;24356;48.460;11.450;2023-05-07T03:01:04;8.82;;;2.55;;
38591;SDS011;24356;48.460;11.450;2023-05-07T03:03:30;2.92;;;2.22;;
38591;SDS011;24356;48.460;11.450;2023-05-07T03:05:55;4.57;;;2.28;;
38591;SDS011;24356;48.460;11.450;2023-05-07T03:08:21;2.50;;;2.30;;
38591;SDS011;24356;48.460;11.450;2023-05-07T03:10:47;2.92;;;2.20;;
38591;SDS011;24356;48.460;11.450;2023-05-07T03:13:12;4.05;;;2.50;;
38591;SDS011;24356;48.460;11.450;2023-05-07T03:15:38;2.20;;;2.00;;
38591;SDS011;24356;48.460;11.450;2023-05-07T03:18:04;3.28;;;2.20;;
38591;SDS011;24356;48.460;11.450;2023-05-07T03:20:30;3.90;;;2.55;;
38591;SDS011;24356;48.460;11.450;2023-05-07T03:22:56;6.25;;;2.67;;
38591;SDS011;24356;48.460;11.450;2023-05-07T03:25:21;5.47;;;3.00;;
38591;SDS011;24356;48.460;11.450;2023-05-07T03:27:47;3.10;;;2.13;;
38591;SDS011;24356;48.460;11.450;2023-05-07T03:30:13;5.45;;;3.33;;
38591;SDS011;24356;48.460;11.450;2023-05-07T03:32:38;4.53;;;3.20;;
38591;SDS011;24356;48.460;11.450;2023-05-07T03:35:04;4.05;;;3.17;;
38591;SDS011;24356;48.460;11.450;2023-05-07T03:37:30;4.10;;;3.47;;
38591;SDS011;24356;48.460;11.450;2023-05-07T03:39:55;4.60;;;3.80;;
38591;SDS011;24356;48.460;11.450;2023-05-07T03:42:21;3.60;;;3.05;;
38591;SDS011;24356;48.460;11.450;2023-05-07T03:44:47;6.45;;;3.65;;
38591;SDS011;24356;48.460;11.450;2023-05-07T03:47:12;5.90;;;4.85;;
38591;SDS011;24356;48.460;11.450;2023-05-07T03:49:38;7.65;;;4.80;;
38591;SDS011;24356;48.460;11.450;2023-05-07T03:52:04;5.68;;;3.15;;
38591;SDS011;24356;48.460;11.450;2023-05-07T03:54:30;3.58;;;2.83;;
38591;SDS011;24356;48.460;11.450;2023-05-07T03:56:56;4.72;;;2.65;;
38591;SDS011;24356;48.460;11.450;2023-05-07T03:59:21;5.20;;;2.95;;
38591;SDS011;24356;48.460;11.450;2023-05-07T04:01:47;3.83;;;2.63;;
38591;SDS011;24356;48.460;11.450;2023-05-07T04:04:13;4.60;;;2.60;;
38591;SDS011;24356;48.460;11.450;2023-05-07T04:06:39;4.65;;;2.72;;
38591;SDS011;24356;48.460;11.450;2023-05-07T04:09:05;4.18;;;2.80;;
38591;SDS011;24356;48.460;11.450;2023-05-07T04:11:31;4.13;;;2.80;;
38591;SDS011;24356;48.460;11.450;2023-05-07T04:13:57;3.40;;;2.60;;
38591;SDS011;24356;48.460;11.450;2023-05-07T04:16:22;4.35;;;2.83;;
38591;SDS011;24356;48.460;11.450;2023-05-07T04:18:48;5.20;;;2.60;;
38591;SDS011;24356;48.460;11.450;2023-05-07T04:21:17;4.15;;;3.00;;
38591;SDS011;24356;48.460;11.450;2023-05-07T04:23:45;4.22;;;2.80;;
38591;SDS011;24356;48.460;11.450;2023-05-07T04:26:11;5.72;;;2.75;;
38591;SDS011;24356;48.460;11.450;2023-05-07T04:28:36;3.67;;;2.70;;
38591;SDS011;24356;48.460;11.450;2023-05-07T04:31:02;3.05;;;2.63;;
38591;SDS011;24356;48.460;11.450;2023-05-07T04:33:28;3.58;;;2.40;;
38591;SDS011;24356;48.460;11.450;2023-05-07T04:35:54;2.63;;;2.42;;
38591;SDS011;24356;48.460;11.450;2023-05-07T04:38:19;5.55;;;2.90;;
38591;SDS011;24356;48.460;11.450;2023-05-07T04:40:45;3.55;;;2.40;;
38591;SDS011;24356;48.460;11.450;2023-05-07T04:43:11;2.90;;;2.65;;
38591;SDS011;24356;48.460;11.450;2023-05-07T04:45:38;6.32;;;2.60;;
38591;SDS011;24356;48.460;11.450;2023-05-07T04:48:06;4.35;;;2.67;;
38591;SDS011;24356;48.460;11.450;2023-05-07T04:50:32;5.32;;;2.50;;
38591;SDS011;24356;48.460;11.450;2023-05-07T04:52:57;3.55;;;3.00;;
38591;SDS011;24356;48.460;11.450;2023-05-07T04:55:23;4.90;;;2.55;;
38591;SDS011;24356;48.460;11.450;2023-05-07T04:57:49;4.53;;;2.58;;
38591;SDS011;24356;48.460;11.450;2023-05-07T05:00:15;6.10;;;2.90;;
38591;SDS011;24356;48.460;11.450;2023-05-07T05:02:41;5.28;;;2.70;;
38591;SDS011;24356;48.460;11.450;2023-05-07T05:05:07;6.20;;;2.75;;
38591;SDS011;24356;48.460;11.450;2023-05-07T05:07:33;3.95;;;2.85;;
38591;SDS011;24356;48.460;11.450;2023-05-07T05:09:58;4.32;;;3.10;;
38591;SDS011;24356;48.460;11.450;2023-05-07T05:12:24;6.40;;;3.45;;
38591;SDS011;24356;48.460;11.450;2023-05-07T05:14:50;7.00;;;3.90;;
38591;SDS011;24356;48.460;11.450;2023-05-07T05:17:15;2.35;;;2.15;;
38591;SDS011;24356;48.460;11.450;2023-05-07T05:19:41;13.38;;;3.47;;
38591;SDS011;24356;48.460;11.450;2023-05-07T05:22:06;3.35;;;2.72;;
38591;SDS011;24356;48.460;11.450;2023-05-07T05:24:32;4.45;;;2.30;;
38591;SDS011;24356;48.460;11.450;2023-05-07T05:26:57;2.30;;;2.10;;
38591;SDS011;24356;48.460;11.450;2023-05-07T05:29:26;4.60;;;4.10;;
38591;SDS011;24356;48.460;11.450;2023-05-07T05:31:51;4.97;;;2.65;;
38591;SDS011;24356;48.460;11.450;2023-05-07T05:34:17;9.85;;;5.72;;
38591;SDS011;24356;48.460;11.450;2023-05-07T05:36:44;6.10;;;4.70;;
38591;SDS011;24356;48.460;11.450;2023-05-07T05:39:10;7.72;;;5.63;;
38591;SDS011;24356;48.460;11.450;2023-05-07T05:41:35;11.07;;;6.55;;
38591;SDS011;24356;48.460;11.450;2023-05-07T05:44:01;9.57;;;6.78;;
38591;SDS011;24356;48.460;11.450;2023-05-07T05:46:26;9.57;;;5.72;;
38591;SDS011;24356;48.460;11.450;2023-05-07T05:48:52;8.60;;;6.25;;
38591;SDS011;24356;48.460;11.450;2023-05-07T05:51:17;10.57;;;5.93;;
38591;SDS011;24356;48.460;11.450;2023-05-07T05:53:43;9.60;;;5.80;;
38591;SDS011;24356;48.460;11.450;2023-05-07T05:56:09;9.73;;;6.68;;
38591;SDS011;24356;48.460;11.450;2023-05-07T05:58:35;11.23;;;7.40;;
38591;SDS011;24356;48.460;11.450;2023-05-07T06:01:00;10.25;;;6.47;;
38591;SDS011;24356;48.460;11.450;2023-05-07T06:03:27;10.30;;;6.70;;
38591;SDS011;24356;48.460;11.450;2023-05-07T06:05:53;8.43;;;6.50;;
38591;SDS011;24356;48.460;11.450;2023-05-07T06:08:18;8.98;;;6.63;;
38591;SDS011;24356;48.460;11.450;2023-05-07T06:10:44;8.85;;;6.72;;
38591;SDS011;24356;48.460;11.450;2023-05-07T06:13:10;9.20;;;5.90;;
38591;SDS011;24356;48.460;11.450;2023-05-07T06:15:36;9.40;;;6.25;;
38591;SDS011;24356;48.460;11.450;2023-05-07T06:18:01;7.30;;;6.32;;
38591;SDS011;24356;48.460;11.450;2023-05-07T06:20:27;9.48;;;5.90;;
38591;SDS011;24356;48.460;11.450;2023-05-07T06:22:52;9.48;;;6.53;;
38591;SDS011;24356;48.460;11.450;2023-05-07T06:25:18;8.20;;;6.72;;
38591;SDS011;24356;48.460;11.450;2023-05-07T06:27:43;9.85;;;6.05;;
38591;SDS011;24356;48.460;11.450;2023-05-07T06:30:09;9.95;;;6.65;;
38591;SDS011;24356;48.460;11.450;2023-05-07T06:32:36;9.20;;;6.40;;
38591;SDS011;24356;48.460;11.450;2023-05-07T06:35:01;7.57;;;5.47;;
38591;SDS011;24356;48.460;11.450;2023-05-07T06:37:27;6.63;;;5.28;;
38591;SDS011;24356;48.460;11.450;2023-05-07T06:39:53;6.22;;;5.60;;
38591;SDS011;24356;48.460;11.450;2023-05-07T06:42:18;8.07;;;5.55;;
38591;SDS011;24356;48.460;11.450;2023-05-07T06:44:44;13.18;;;6.20;;
38591;SDS011;24356;48.460;11.450;2023-05-07T06:47:09;8.18;;;5.82;;
38591;SDS011;24356;48.460;11.450;2023-05-07T06:49:35;9.18;;;5.53;;
38591;SDS011;24356;48.460;11.450;2023-05-07T06:52:01;7.78;;;5.40;;
38591;SDS011;24356;48.460;11.450;2023-05-07T06:54:26;8.68;;;5.57;;
38591;SDS011;24356;48.460;11.450;2023-05-07T06:56:52;7.28;;;5.60;;
38591;SDS011;24356;48.460;11.450;2023-05-07T06:59:17;8.57;;;5.32;;
38591;SDS011;24356;48.460;11.450;2023-05-07T07:01:44;9.38;;;5.30;;
38591;SDS011;24356;48.460;11.450;2023-05-07T07:04:09;7.30;;;5.53;;
38591;SDS011;24356;48.460;11.450;2023-05-07T07:06:35;7.38;;;5.25;;
38591;SDS011;24356;48.460;11.450;2023-05-07T07:09:00;7.57;;;4.68;;
38591;SDS011;24356;48.460;11.450;2023-05-07T07:11:26;5.78;;;3.97;;
38591;SDS011;24356;48.460;11.450;2023-05-07T07:13:52;6.85;;;4.38;;
38591;SDS011;24356;48.460;11.450;2023-05-07T07:16:19;8.88;;;4.35;;
38591;SDS011;24356;48.460;11.450;2023-05-07T07:18:45;5.55;;;4.38;;
38591;SDS011;24356;48.460;11.450;2023-05-07T07:21:11;7.20;;;4.30;;
38591;SDS011;24356;48.460;11.450;2023-05-07T07:23:36;6.28;;;4.55;;
38591;SDS011;24356;48.460;11.450;2023-05-07T07:26:02;8.15;;;4.55;;
38591;SDS011;24356;48.460;11.450;2023-05-07T07:28:28;5.75;;;3.90;;
38591;SDS011;24356;48.460;11.450;2023-05-07T07:30:53;5.65;;;4.18;;
38591;SDS011;24356;48.460;11.450;2023-05-07T07:33:19;8.23;;;4.82;;
38591;SDS011;24356;48.460;11.450;2023-05-07T07:35:44;7.72;;;4.15;;
38591;SDS011;24356;48.460;11.450;2023-05-07T07:38:10;4.95;;;3.97;;
38591;SDS011;24356;48.460;11.450;2023-05-07T07:40:35;8.63;;;4.60;;
38591;SDS011;24356;48.460;11.450;2023-05-07T07:43:01;6.30;;;4.10;;
38591;SDS011;24356;48.460;11.450;2023-05-07T07:45:27;7.18;;;4.85;;
38591;SDS011;24356;48.460;11.450;2023-05-07T07:47:52;8.27;;;4.45;;
38591;SDS011;24356;48.460;11.450;2023-05-07T07:50:18;6.57;;;4.45;;
38591;SDS011;24356;48.460;11.450;2023-05-07T07:52:44;7.97;;;4.78;;
38591;SDS011;24356;48.460;11.450;2023-05-07T07:55:10;6.93;;;5.53;;
38591;SDS011;24356;48.460;11.450;2023-05-07T07:57:35;6.25;;;4.28;;
38591;SDS011;24356;48.460;11.450;2023-05-07T08:00:01;6.57;;;4.30;;
38591;SDS011;24356;48.460;11.450;2023-05-07T08:02:27;7.72;;;4.50;;
38591;SDS011;24356;48.460;11.450;2023-05-07T08:04:53;6.78;;;4.43;;
38591;SDS011;24356;48.460;11.450;2023-05-07T08:07:18;7.63;;;4.40;;
38591;SDS011;24356;48.460;11.450;2023-05-07T08:09:45;5.18;;;4.30;;
38591;SDS011;24356;48.460;11.450;2023-05-07T08:12:11;7.50;;;4.50;;
38591;SDS011;24356;48.460;11.450;2023-05-07T08:14:37;9.02;;;4.57;;
38591;SDS011;24356;48.460;11.450;2023-05-07T08:17:02;6.85;;;4.10;;
38591;SDS011;24356;48.460;11.450;2023-05-07T08:19:28;5.88;;;3.92;;
38591;SDS011;24356;48.460;11.450;2023-05-07T08:21:53;4.72;;;3.50;;
38591;SDS011;24356;48.460;11.450;2023-05-07T08:24:20;7.22;;;4.43;;
38591;SDS011;24356;48.460;11.450;2023-05-07T08:26:45;7.75;;;3.85;;
38591;SDS011;24356;48.460;11.450;2023-05-07T08:29:11;4.50;;;3.50;;
38591;SDS011;24356;48.460;11.450;2023-05-07T08:31:37;7.28;;;3.55;;
38591;SDS011;24356;48.460;11.450;2023-05-07T08:34:04;4.03;;;3.15;;
38591;SDS011;24356;48.460;11.450;2023-05-07T08:36:30;5.95;;;3.05;;
38591;SDS011;24356;48.460;11.450;2023-05-07T08:38:55;4.97;;;2.83;;
38591;SDS011;24356;48.460;11.450;2023-05-07T08:41:21;5.63;;;2.47;;
38591;SDS011;24356;48.460;11.450;2023-05-07T08:43:47;4.88;;;3.10;;
38591;SDS011;24356;48.460;11.450;2023-05-07T08:46:21;3.88;;;2.67;;
38591;SDS011;24356;48.460;11.450;2023-05-07T08:48:48;3.65;;;1.83;;
38591;SDS011;24356;48.460;11.450;2023-05-07T08:51:16;2.42;;;1.92;;
38591;SDS011;24356;48.460;11.450;2023-05-07T08:53:43;3.92;;;2.00;;
38591;SDS011;24356;48.460;11.450;2023-05-07T08:56:09;4.10;;;2.03;;
38591;SDS011;24356;48.460;11.450;2023-05-07T08:58:35;3.83;;;2.22;;
38591;SDS011;24356;48.460;11.450;2023-05-07T09:01:07;5.25;;;2.20;;
38591;SDS011;24356;48.460;11.450;2023-05-07T09:03:36;2.70;;;2.08;;
38591;SDS011;24356;48.460;11.450;2023-05-07T09:06:03;4.00;;;1.75;;
38591;SDS011;24356;48.460;11.450;2023-05-07T09:08:29;2.17;;;1.90;;
38591;SDS011;24356;48.460;11.450;2023-05-07T09:10:54;4.35;;;2.10;;
38591;SDS011;24356;48.460;11.450;2023-05-07T09:13:20;2.80;;;1.80;;
38591;SDS011;24356;48.460;11.450;2023-05-07T09:15:46;3.58;;;2.10;;
38591;SDS011;24356;48.460;11.450;2023-05-07T09:18:12;2.92;;;1.88;;
38591;SDS011;24356;48.460;11.450;2023-05-07T09:20:38;3.63;;;1.60;;
38591;SDS011;24356;48.460;11.450;2023-05-07T09:23:05;3.70;;;1.70;;
38591;SDS011;24356;48.460;11.450;2023-05-07T09:25:32;3.25;;;1.60;;
38591;SDS011;24356;48.460;11.450;2023-05-07T09:27:59;2.35;;;1.42;;
38591;SDS011;24356;48.460;11.450;2023-05-07T09:30:30;2.75;;;1.70;;
38591;SDS011;24356;48.460;11.450;2023-05-07T09:32:56;2.78;;;1.30;;
38591;SDS011;24356;48.460;11.450;2023-05-07T09:35:26;1.92;;;1.30;;
38591;SDS011;24356;48.460;11.450;2023-05-07T09:37:53;2.35;;;1.20;;
38591;SDS011;24356;48.460;11.450;2023-05-07T09:40:21;1.88;;;1.20;;
38591;SDS011;24356;48.460;11.450;2023-05-07T09:42:48;4.10;;;1.40;;
38591;SDS011;24356;48.460;11.450;2023-05-07T09:45:14;1.48;;;1.15;;
38591;SDS011;24356;48.460;11.450;2023-05-07T09:47:41;2.60;;;1.30;;
38591;SDS011;24356;48.460;11.450;2023-05-07T09:50:09;1.70;;;1.20;;
38591;SDS011;24356;48.460;11.450;2023-05-07T09:52:37;3.70;;;1.20;;
38591;SDS011;24356;48.460;11.450;2023-05-07T09:55:05;2.75;;;1.00;;
38591;SDS011;24356;48.460;11.450;2023-05-07T09:57:32;1.92;;;1.00;;
38591;SDS011;24356;48.460;11.450;2023-05-07T09:59:59;0.85;;;0.73;;
38591;SDS011;24356;48.460;11.450;2023-05-07T10:02:27;1.52;;;1.10;;
38591;SDS011;24356;48.460;11.450;2023-05-07T10:04:55;1.27;;;1.13;;
38591;SDS011;24356;48.460;11.450;2023-05-07T10:07:23;1.98;;;1.02;;
38591;SDS011;24356;48.460;11.450;2023-05-07T10:09:50;2.10;;;0.88;;
38591;SDS011;24356;48.460;11.450;2023-05-07T10:12:16;1.92;;;0.90;;
38591;SDS011;24356;48.460;11.450;2023-05-07T10:14:43;1.88;;;1.20;;
38591;SDS011;24356;48.460;11.450;2023-05-07T10:17:10;1.02;;;0.90;;
38591;SDS011;24356;48.460;11.450;2023-05-07T10:19:36;2.00;;;1.17;;
38591;SDS011;24356;48.460;11.450;2023-05-07T10:22:04;1.00;;;0.90;;
38591;SDS011;24356;48.460;11.450;2023-05-07T10:24:34;2.97;;;1.08;;
38591;SDS011;24356;48.460;11.450;2023-05-07T10:27:03;2.67;;;1.10;;
38591;SDS011;24356;48.460;11.450;2023-05-07T10:35:10;3.55;;;0.90;;
38591;SDS011;24356;48.460;11.450;2023-05-07T10:37:41;1.83;;;0.95;;
38591;SDS011;24356;48.460;11.450;2023-05-07T10:40:07;2.35;;;0.90;;
38591;SDS011;24356;48.460;11.450;2023-05-07T10:42:34;1.45;;;0.90;;
38591;SDS011;24356;48.460;11.450;2023-05-07T10:45:21;2.45;;;1.00;;
38591;SDS011;24356;48.460;11.450;2023-05-07T10:50:38;3.50;;;1.00;;
38591;SDS011;24356;48.460;11.450;2023-05-07T10:55:47;2.47;;;1.23;;
38591;SDS011;24356;48.460;11.450;2023-05-07T10:58:24;2.10;;;1.20;;
38591;SDS011;24356;48.460;11.450;2023-05-07T11:00:55;1.83;;;1.00;;
38591;SDS011;24356;48.460;11.450;2023-05-07T11:03:22;1.73;;;1.10;;
38591;SDS011;24356;48.460;11.450;2023-05-07T11:05:47;2.35;;;1.10;;
38591;SDS011;24356;48.460;11.450;2023-05-07T11:11:17;2.28;;;1.00;;
38591;SDS011;24356;48.460;11.450;2023-05-07T11:13:46;3.00;;;1.13;;
38591;SDS011;24356;48.460;11.450;2023-05-07T11:16:20;3.75;;;1.05;;
38591;SDS011;24356;48.460;11.450;2023-05-07T11:18:48;2.92;;;0.73;;
38591;SDS011;24356;48.460;11.450;2023-05-07T11:24:06;3.25;;;1.10;;
38591;SDS011;24356;48.460;11.450;2023-05-07T11:26:54;3.58;;;1.15;;
38591;SDS011;24356;48.460;11.450;2023-05-07T11:29:19;2.42;;;1.15;;
38591;SDS011;24356;48.460;11.450;2023-05-07T11:31:50;3.70;;;1.27;;
38591;SDS011;24356;48.460;11.450;2023-05-07T11:34:20;2.40;;;1.23;;
38591;SDS011;24356;48.460;11.450;2023-05-07T11:36:47;1.30;;;1.15;;
38591;SDS011;24356;48.460;11.450;2023-05-07T11:39:24;2.78;;;1.20;;
38591;SDS011;24356;48.460;11.450;2023-05-07T11:41:58;1.10;;;1.00;;
38591;SDS011;24356;48.460;11.450;2023-05-07T11:44:24;2.65;;;1.30;;
38591;SDS011;24356;48.460;11.450;2023-05-07T11:46:50;3.47;;;1.38;;
38591;SDS011;24356;48.460;11.450;2023-05-07T11:49:15;3.90;;;1.02;;
38591;SDS011;24356;48.460;11.450;2023-05-07T11:51:42;2.30;;;1.15;;
38591;SDS011;24356;48.460;11.450;2023-05-07T11:54:08;1.40;;;1.13;;
38591;SDS011;24356;48.460;11.450;2023-05-07T11:56:36;2.30;;;1.40;;
38591;SDS011;24356;48.460;11.450;2023-05-07T11:59:02;3.17;;;1.33;;
38591;SDS011;24356;48.460;11.450;2023-05-07T12:01:28;2.63;;;1.50;;
38591;SDS011;24356;48.460;11.450;2023-05-07T12:03:53;3.85;;;1.50;;
38591;SDS011;24356;48.460;11.450;2023-05-07T12:06:19;2.72;;;1.58;;
38591;SDS011;24356;48.460;11.450;2023-05-07T12:08:45;2.08;;;1.55;;
38591;SDS011;24356;48.460;11.450;2023-05-07T12:11:23;1.98;;;1.30;;
38591;SDS011;24356;48.460;11.450;2023-05-07T12:13:50;1.67;;;1.33;;
38591;SDS011;24356;48.460;11.450;2023-05-07T12:16:16;2.05;;;1.40;;
38591;SDS011;24356;48.460;11.450;2023-05-07T12:18:42;2.78;;;1.40;;
38591;SDS011;24356;48.460;11.450;2023-05-07T12:21:09;1.73;;;1.20;;
38591;SDS011;24356;48.460;11.450;2023-05-07T12:23:35;1.65;;;1.00;;
38591;SDS011;24356;48.460;11.450;2023-05-07T12:26:02;2.90;;;0.93;;
38591;SDS011;24356;48.460;11.450;2023-05-07T12:28:28;1.90;;;1.30;;
38591;SDS011;24356;48.460;11.450;2023-05-07T12:30:55;1.13;;;1.00;;
38591;SDS011;24356;48.460;11.450;2023-05-07T12:33:25;1.42;;;1.20;;
38591;SDS011;24356;48.460;11.450;2023-05-07T12:35:54;2.10;;;1.10;;
38591;SDS011;24356;48.460;11.450;2023-05-07T12:38:21;0.80;;;0.80;;
38591;SDS011;24356;48.460;11.450;2023-05-07T12:40:48;1.85;;;1.25;;
38591;SDS011;24356;48.460;11.450;2023-05-07T12:45:49;1.20;;;1.00;;
38591;SDS011;24356;48.460;11.450;2023-05-07T12:48:16;1.75;;;1.10;;
38591;SDS011;24356;48.460;11.450;2023-05-07T12:50:42;1.25;;;0.93;;
38591;SDS011;24356;48.460;11.450;2023-05-07T12:53:09;2.70;;;1.38;;
38591;SDS011;24356;48.460;11.450;2023-05-07T12:55:55;2.95;;;1.30;;
38591;SDS011;24356;48.460;11.450;2023-05-07T12:58:26;3.30;;;1.23;;
38591;SDS011;24356;48.460;11.450;2023-05-07T13:00:54;1.70;;;1.30;;
38591;SDS011;24356;48.460;11.450;2023-05-07T13:05:50;1.40;;;1.30;;
38591;SDS011;24356;48.460;11.450;2023-05-07T13:11:15;2.10;;;1.40;;
38591;SDS011;24356;48.460;11.450;2023-05-07T13:13:40;2.05;;;1.00;;
38591;SDS011;24356;48.460;11.450;2023-05-07T13:16:07;2.50;;;1.20;;
38591;SDS011;24356;48.460;11.450;2023-05-07T13:18:34;2.00;;;1.40;;
38591;SDS011;24356;48.460;11.450;2023-05-07T13:21:00;3.25;;;1.40;;
38591;SDS011;24356;48.460;11.450;2023-05-07T13:23:26;1.55;;;1.38;;
38591;SDS011;24356;48.460;11.450;2023-05-07T13:25:53;2.80;;;1.40;;
38591;SDS011;24356;48.460;11.450;2023-05-07T13:28:22;3.28;;;1.60;;
38591;SDS011;24356;48.460;11.450;2023-05-07T13:30:51;2.92;;;1.48;;
38591;SDS011;24356;48.460;11.450;2023-05-07T13:33:17;3.47;;;1.48;;
38591;SDS011;24356;48.460;11.450;2023-05-07T13:35:44;1.98;;;1.40;;
38591;SDS011;24356;48.460;11.450;2023-05-07T13:38:09;2.17;;;1.20;;
38591;SDS011;24356;48.460;11.450;2023-05-07T13:40:35;1.60;;;1.48;;
38591;SDS011;24356;48.460;11.450;2023-05-07T13:43:01;4.63;;;1.38;;
38591;SDS011;24356;48.460;11.450;2023-05-07T13:45:29;1.83;;;1.40;;
38591;SDS011;24356;48.460;11.450;2023-05-07T13:47:55;2.17;;;1.40;;
38591;SDS011;24356;48.460;11.450;2023-05-07T13:50:22;2.58;;;1.30;;
38591;SDS011;24356;48.460;11.450;2023-05-07T13:52:48;3.17;;;1.58;;
38591;SDS011;24356;48.460;11.450;2023-05-07T13:55:17;3.30;;;1.40;;
38591;SDS011;24356;48.460;11.450;2023-05-07T13:57:43;2.83;;;1.20;;
38591;SDS011;24356;48.460;11.450;2023-05-07T14:00:10;2.33;;;1.48;;
38591;SDS011;24356;48.460;11.450;2023-05-07T14:02:36;2.95;;;1.40;;
38591;SDS011;24356;48.460;11.450;2023-05-07T14:05:02;1.63;;;1.40;;
38591;SDS011;24356;48.460;11.450;2023-05-07T14:07:27;1.50;;;1.40;;
38591;SDS011;24356;48.460;11.450;2023-05-07T14:09:53;2.17;;;1.63;;
38591;SDS011;24356;48.460;11.450;2023-05-07T14:12:19;3.45;;;1.48;;
38591;SDS011;24356;48.460;11.450;2023-05-07T14:14:45;2.20;;;1.30;;
38591;SDS011;24356;48.460;11.450;2023-05-07T14:17:12;2.47;;;1.33;;
38591;SDS011;24356;48.460;11.450;2023-05-07T14:19:38;3.90;;;1.73;;
38591;SDS011;24356;48.460;11.450;2023-05-07T14:22:03;1.98;;;1.25;;
38591;SDS011;24356;48.460;11.450;2023-05-07T14:24:29;3.92;;;1.40;;
38591;SDS011;24356;48.460;11.450;2023-05-07T14:26:55;3.15;;;1.65;;
38591;SDS011;24356;48.460;11.450;2023-05-07T14:29:21;1.65;;;1.50;;
38591;SDS011;24356;48.460;11.450;2023-05-07T14:31:47;8.50;;;1.50;;
38591;SDS011;24356;48.460;11.450;2023-05-07T14:34:13;2.22;;;1.50;;
38591;SDS011;24356;48.460;11.450;2023-05-07T14:36:39;2.22;;;1.40;;
38591;SDS011;24356;48.460;11.450;2023-05-07T14:39:06;3.00;;;1.60;;
38591;SDS011;24356;48.460;11.450;2023-05-07T14:41:32;3.00;;;1.60;;
38591;SDS011;24356;48.460;11.450;2023-05-07T14:43:58;2.30;;;1.17;;
38591;SDS011;24356;48.460;11.450;2023-05-07T14:46:24;3.65;;;1.50;;
38591;SDS011;24356;48.460;11.450;2023-05-07T14:48:50;1.40;;;1.30;;
38591;SDS011;24356;48.460;11.450;2023-05-07T14:51:16;1.98;;;1.50;;
38591;SDS011;24356;48.460;11.450;2023-05-07T14:53:47;2.72;;;1.75;;